Wetterdaten: Woche 30.01.06 - 05.02.06 (KW5)
Datum Zeit Temperatur Luftfeuchte Luftdruck Niederschlag Windrichtung Wind
30.01.2006 00:00 -5,2 C 69 % 1024 hPa 0,0 l/m N 10,3 km/h (2 Bft)
30.01.2006 01:00 -5,7 C 72 % 1024 hPa 0,0 l/m N 10,4 km/h (2 Bft)
30.01.2006 02:00 -6,2 C 75 % 1024 hPa 0,0 l/m N 10,0 km/h (2 Bft)
30.01.2006 03:00 -6,6 C 77 % 1024 hPa 0,0 l/m N 10,1 km/h (2 Bft)
30.01.2006 04:00 -6,9 C 78 % 1024 hPa 0,0 l/m N 9,6 km/h (2 Bft)
30.01.2006 05:00 -7,3 C 79 % 1024 hPa 0,0 l/m N-NW 6,2 km/h (2 Bft)
30.01.2006 06:00 -7,8 C 80 % 1024 hPa 0,0 l/m N-NW 7,5 km/h (2 Bft)
30.01.2006 07:00 -8,0 C 82 % 1024 hPa 0,0 l/m N 10,8 km/h (2 Bft)
30.01.2006 08:00 -8,1 C 83 % 1024 hPa 0,0 l/m N 9,7 km/h (2 Bft)
30.01.2006 09:00 -7,0 C 81 % 1025 hPa 0,0 l/m N 10,7 km/h (2 Bft)
30.01.2006 10:00 -5,5 C 73 % 1025 hPa 0,0 l/m N 11,8 km/h (2 Bft)
30.01.2006 11:00 -3,9 C 64 % 1024 hPa 0,0 l/m N-NO 14,6 km/h (3 Bft)
30.01.2006 12:00 -2,1 C 58 % 1024 hPa 0,0 l/m N 15,2 km/h (3 Bft)
30.01.2006 13:00 -0,3 C 53 % 1024 hPa 0,0 l/m N-NO 14,1 km/h (3 Bft)
30.01.2006 14:00 1,1 C 52 % 1023 hPa 0,0 l/m N-NO 13,9 km/h (3 Bft)
30.01.2006 15:00 1,3 C 52 % 1022 hPa 0,0 l/m N 12,9 km/h (3 Bft)
30.01.2006 16:00 0,6 C 55 % 1022 hPa 0,0 l/m N 14,2 km/h (3 Bft)
30.01.2006 17:00 -1,0 C 61 % 1022 hPa 0,0 l/m N 11,2 km/h (2 Bft)
30.01.2006 18:00 -2,0 C 66 % 1022 hPa 0,0 l/m N-NW 10,0 km/h (2 Bft)
30.01.2006 19:00 -2,7 C 71 % 1023 hPa 0,0 l/m N-NW 11,3 km/h (2 Bft)
30.01.2006 20:00 -2,9 C 72 % 1023 hPa 0,0 l/m N-NO 13,4 km/h (3 Bft)
30.01.2006 21:00 -3,4 C 72 % 1023 hPa 0,0 l/m N-NW 8,5 km/h (2 Bft)
30.01.2006 22:00 -4,2 C 74 % 1022 hPa 0,0 l/m N 10,8 km/h (2 Bft)
30.01.2006 23:00 -4,9 C 76 % 1022 hPa 0,0 l/m N-NW 10,3 km/h (2 Bft)
31.01.2006 00:00 -5,3 C 76 % 1022 hPa 0,0 l/m N-NW 10,8 km/h (2 Bft)
31.01.2006 01:00 -5,7 C 77 % 1022 hPa 0,0 l/m N-NW 9,4 km/h (2 Bft)
31.01.2006 02:00 -6,2 C 78 % 1022 hPa 0,0 l/m N-NW 8,4 km/h (2 Bft)
31.01.2006 03:00 -6,5 C 79 % 1022 hPa 0,0 l/m N-NW 8,1 km/h (2 Bft)
31.01.2006 04:00 -6,4 C 81 % 1022 hPa 0,0 l/m N-NW 10,1 km/h (2 Bft)
31.01.2006 05:00 -6,6 C 81 % 1022 hPa 0,0 l/m N-NW 9,6 km/h (2 Bft)
31.01.2006 06:00 -6,9 C 82 % 1022 hPa 0,0 l/m N-NW 7,6 km/h (2 Bft)
31.01.2006 07:00 -7,2 C 83 % 1022 hPa 0,0 l/m N-NW 8,0 km/h (2 Bft)
31.01.2006 08:00 -6,9 C 83 % 1022 hPa 0,0 l/m N-NW 9,0 km/h (2 Bft)
31.01.2006 09:00 -5,6 C 81 % 1022 hPa 0,0 l/m N-NW 4,5 km/h (1 Bft)
31.01.2006 10:00 -3,7 C 71 % 1023 hPa 0,0 l/m N 1,3 km/h (1 Bft)
31.01.2006 11:00 -1,4 C 61 % 1023 hPa 0,0 l/m N 6,9 km/h (2 Bft)
31.01.2006 12:00 1,1 C 55 % 1023 hPa 0,0 l/m NO 8,6 km/h (2 Bft)
31.01.2006 13:00 3,1 C 51 % 1022 hPa 0,0 l/m NO 8,7 km/h (2 Bft)
31.01.2006 14:00 4,5 C 47 % 1022 hPa 0,0 l/m N 11,1 km/h (2 Bft)
31.01.2006 15:00 4,7 C 45 % 1022 hPa 0,0 l/m N 8,3 km/h (2 Bft)
31.01.2006 16:00 3,0 C 49 % 1022 hPa 0,0 l/m N 10,2 km/h (2 Bft)
31.01.2006 17:00 1,0 C 53 % 1022 hPa 0,0 l/m N-NW 10,2 km/h (2 Bft)
31.01.2006 18:00 -0,3 C 56 % 1022 hPa 0,0 l/m N-NW 11,1 km/h (2 Bft)
31.01.2006 19:00 -1,1 C 59 % 1022 hPa 0,0 l/m N 11,2 km/h (2 Bft)
31.01.2006 20:00 -1,5 C 61 % 1021 hPa 0,0 l/m N 11,9 km/h (2 Bft)
31.01.2006 21:00 -2,2 C 62 % 1021 hPa 0,0 l/m N-NW 6,6 km/h (2 Bft)
31.01.2006 22:00 -3,2 C 64 % 1021 hPa 0,0 l/m N-NW 11,1 km/h (2 Bft)
31.01.2006 23:00 -3,7 C 68 % 1022 hPa 0,0 l/m N-NW 10,0 km/h (2 Bft)
01.02.2006 00:00 -4,4 C 72 % 1022 hPa 0,0 l/m N 9,9 km/h (2 Bft)
01.02.2006 01:00 -4,8 C 74 % 1022 hPa 0,0 l/m NW 6,1 km/h (2 Bft)
01.02.2006 02:00 -5,6 C 76 % 1022 hPa 0,0 l/m NW 4,9 km/h (1 Bft)
01.02.2006 03:00 -6,3 C 79 % 1022 hPa 0,0 l/m NW 1,0 km/h (0 Bft)
01.02.2006 04:00 -7,7 C 81 % 1022 hPa 0,0 l/m S 1,4 km/h (1 Bft)
01.02.2006 05:00 -8,6 C 81 % 1022 hPa 0,0 l/m N 0,0 km/h (0 Bft)
01.02.2006 06:00 -9,3 C 83 % 1021 hPa 0,0 l/m N 0,0 km/h (0 Bft)
01.02.2006 07:00 -9,8 C 83 % 1021 hPa 0,0 l/m N 0,0 km/h (0 Bft)
01.02.2006 08:00 -9,2 C 84 % 1022 hPa 0,0 l/m N 0,0 km/h (0 Bft)
01.02.2006 09:00 -7,9 C 85 % 1021 hPa 0,0 l/m N 0,0 km/h (0 Bft)
01.02.2006 10:00 -6,8 C 90 % 1022 hPa 0,0 l/m N 0,0 km/h (0 Bft)
01.02.2006 11:00 -4,1 C 90 % 1021 hPa 0,0 l/m N 0,0 km/h (0 Bft)
01.02.2006 12:00 -0,3 C 73 % 1021 hPa 0,0 l/m N 0,0 km/h (0 Bft)
01.02.2006 13:00 2,7 C 54 % 1020 hPa 0,0 l/m N 0,0 km/h (0 Bft)
01.02.2006 14:00 4,3 C 49 % 1020 hPa 0,0 l/m N 0,0 km/h (0 Bft)
01.02.2006 15:00 3,9 C 49 % 1019 hPa 0,0 l/m N 4,8 km/h (1 Bft)
01.02.2006 16:00 2,6 C 52 % 1020 hPa 0,0 l/m N 1,7 km/h (1 Bft)
01.02.2006 17:00 0,2 C 57 % 1020 hPa 0,0 l/m N 0,0 km/h (0 Bft)
01.02.2006 18:00 -1,7 C 62 % 1020 hPa 0,0 l/m N 0,0 km/h (0 Bft)
01.02.2006 19:00 -3,1 C 68 % 1020 hPa 0,0 l/m N 0,0 km/h (0 Bft)
01.02.2006 20:00 -3,9 C 74 % 1020 hPa 0,0 l/m N 0,0 km/h (0 Bft)
01.02.2006 21:00 -4,7 C 79 % 1020 hPa 0,0 l/m N 0,0 km/h (0 Bft)
01.02.2006 22:00 -5,3 C 82 % 1020 hPa 0,0 l/m N 0,0 km/h (0 Bft)
01.02.2006 23:00 -5,9 C 83 % 1019 hPa 0,0 l/m N 0,0 km/h (0 Bft)
02.02.2006 00:00 -6,2 C 86 % 1019 hPa 0,0 l/m N 0,0 km/h (0 Bft)
02.02.2006 01:00 -6,6 C 89 % 1020 hPa 0,0 l/m N 0,0 km/h (0 Bft)
02.02.2006 02:00 -7,3 C 91 % 1020 hPa 0,0 l/m N 0,0 km/h (0 Bft)
02.02.2006 03:00 -8,1 C 92 % 1019 hPa 0,0 l/m N 0,0 km/h (0 Bft)
02.02.2006 04:00 -8,9 C 92 % 1019 hPa 0,0 l/m N 0,0 km/h (0 Bft)
02.02.2006 05:00 -9,3 C 92 % 1019 hPa 0,0 l/m N 0,0 km/h (0 Bft)
02.02.2006 06:00 -9,3 C 93 % 1019 hPa 0,0 l/m N 0,0 km/h (0 Bft)
02.02.2006 07:00 -8,2 C 93 % 1019 hPa 0,0 l/m N 0,0 km/h (0 Bft)
02.02.2006 08:00 -7,3 C 94 % 1019 hPa 0,0 l/m S-SO 0,0 km/h (0 Bft)
02.02.2006 09:00 -6,6 C 97 % 1019 hPa 0,0 l/m S-SW 1,2 km/h (1 Bft)
02.02.2006 10:00 -5,9 C 98 % 1019 hPa 0,0 l/m N 0,0 km/h (0 Bft)
02.02.2006 11:00 -4,9 C 99 % 1019 hPa 0,0 l/m N 0,0 km/h (0 Bft)
02.02.2006 12:00 -2,6 C 99 % 1018 hPa 0,0 l/m N 0,0 km/h (0 Bft)
02.02.2006 13:00 0,3 C 92 % 1018 hPa 0,0 l/m N 0,3 km/h (0 Bft)
02.02.2006 14:00 3,8 C 50 % 1017 hPa 0,0 l/m N-NO 4,0 km/h (1 Bft)
02.02.2006 15:00 3,9 C 45 % 1017 hPa 0,0 l/m N 8,7 km/h (2 Bft)
02.02.2006 16:00 2,9 C 51 % 1017 hPa 0,0 l/m N 6,8 km/h (2 Bft)
02.02.2006 17:00 0,6 C 57 % 1017 hPa 0,0 l/m N 8,8 km/h (2 Bft)
02.02.2006 18:00 -1,4 C 61 % 1017 hPa 0,0 l/m N-NW 5,8 km/h (2 Bft)
02.02.2006 19:00 -2,6 C 65 % 1017 hPa 0,0 l/m N 0,0 km/h (0 Bft)
02.02.2006 20:00 -3,4 C 70 % 1017 hPa 0,0 l/m N 0,0 km/h (0 Bft)
02.02.2006 21:00 -4,2 C 74 % 1017 hPa 0,0 l/m N 0,0 km/h (0 Bft)
02.02.2006 22:00 -4,9 C 77 % 1017 hPa 0,0 l/m NW 0,8 km/h (0 Bft)
02.02.2006 23:00 -5,4 C 80 % 1017 hPa 0,0 l/m N 0,0 km/h (0 Bft)
03.02.2006 00:00 -5,8 C 81 % 1017 hPa 0,0 l/m N 0,0 km/h (0 Bft)
03.02.2006 01:00 -5,9 C 83 % 1016 hPa 0,0 l/m N 0,0 km/h (0 Bft)
03.02.2006 02:00 -5,8 C 86 % 1016 hPa 0,0 l/m N 0,0 km/h (0 Bft)
03.02.2006 03:00 -6,1 C 88 % 1016 hPa 0,0 l/m N 0,0 km/h (0 Bft)
03.02.2006 04:00 -6,7 C 88 % 1016 hPa 0,0 l/m N 0,0 km/h (0 Bft)
03.02.2006 05:00 -7,6 C 88 % 1016 hPa 0,0 l/m N 0,0 km/h (0 Bft)
03.02.2006 06:00 -8,2 C 89 % 1016 hPa 0,0 l/m N 0,0 km/h (0 Bft)
03.02.2006 07:00 -8,9 C 89 % 1016 hPa 0,0 l/m N 0,0 km/h (0 Bft)
03.02.2006 08:00 -10,6 C 88 % 1016 hPa 0,0 l/m N 0,0 km/h (0 Bft)
03.02.2006 09:00 -9,4 C 89 % 1016 hPa 0,0 l/m N 0,0 km/h (0 Bft)
03.02.2006 10:00 -7,2 C 93 % 1016 hPa 0,0 l/m N 0,0 km/h (0 Bft)
03.02.2006 11:00 -4,5 C 93 % 1016 hPa 0,0 l/m N 0,0 km/h (0 Bft)
03.02.2006 12:00 -0,6 C 74 % 1016 hPa 0,0 l/m N-NO 2,4 km/h (1 Bft)
03.02.2006 13:00 2,4 C 54 % 1015 hPa 0,0 l/m NO 6,0 km/h (2 Bft)
03.02.2006 14:00 4,1 C 46 % 1015 hPa 0,0 l/m NO 7,7 km/h (2 Bft)
03.02.2006 15:00 3,8 C 43 % 1015 hPa 0,0 l/m O 8,9 km/h (2 Bft)
03.02.2006 16:00 2,5 C 46 % 1014 hPa 0,0 l/m NO 3,7 km/h (1 Bft)
03.02.2006 17:00 0,2 C 52 % 1015 hPa 0,0 l/m SW 0,1 km/h (0 Bft)
03.02.2006 18:00 -2,7 C 63 % 1015 hPa 0,0 l/m SW 0,7 km/h (0 Bft)
03.02.2006 19:00 -4,5 C 76 % 1016 hPa 0,0 l/m N 0,0 km/h (0 Bft)
03.02.2006 20:00 -7,1 C 83 % 1016 hPa 0,0 l/m N 0,0 km/h (0 Bft)
03.02.2006 21:00 -8,3 C 87 % 1016 hPa 0,0 l/m N 0,0 km/h (0 Bft)
03.02.2006 22:00 -7,2 C 88 % 1016 hPa 0,0 l/m N-NW 4,0 km/h (1 Bft)
03.02.2006 23:00 -6,7 C 90 % 1017 hPa 0,0 l/m N 8,7 km/h (2 Bft)
04.02.2006 00:00 -6,3 C 94 % 1017 hPa 0,0 l/m N-NO 10,2 km/h (2 Bft)
04.02.2006 01:00 -6,3 C 95 % 1018 hPa 0,0 l/m NO 9,5 km/h (2 Bft)
04.02.2006 02:00 -6,8 C 94 % 1018 hPa 0,0 l/m NO 11,1 km/h (2 Bft)
04.02.2006 03:00 -7,6 C 94 % 1018 hPa 0,0 l/m NO 11,1 km/h (2 Bft)
04.02.2006 04:00 -8,3 C 93 % 1018 hPa 0,0 l/m O-NO 10,0 km/h (2 Bft)
04.02.2006 05:00 -8,7 C 93 % 1018 hPa 0,0 l/m O-NO 9,7 km/h (2 Bft)
04.02.2006 06:00 -8,9 C 92 % 1019 hPa 0,0 l/m O-NO 9,1 km/h (2 Bft)
04.02.2006 07:00 -9,4 C 91 % 1019 hPa 0,0 l/m NO 9,9 km/h (2 Bft)
04.02.2006 08:00 -9,6 C 91 % 1020 hPa 0,0 l/m NO 9,8 km/h (2 Bft)
04.02.2006 09:00 -9,3 C 92 % 1020 hPa 0,0 l/m NO 9,3 km/h (2 Bft)
04.02.2006 10:00 -8,7 C 92 % 1021 hPa 0,0 l/m O 9,5 km/h (2 Bft)
04.02.2006 11:00 -8,2 C 91 % 1021 hPa 0,0 l/m N-NO 10,6 km/h (2 Bft)
04.02.2006 12:00 -7,8 C 86 % 1021 hPa 0,0 l/m NO 10,5 km/h (2 Bft)
04.02.2006 13:00 -7,4 C 81 % 1021 hPa 0,0 l/m NO 8,8 km/h (2 Bft)
04.02.2006 14:00 -7,3 C 79 % 1021 hPa 0,0 l/m NO 10,3 km/h (2 Bft)
04.02.2006 15:00 -6,7 C 79 % 1022 hPa 0,0 l/m NO 10,2 km/h (2 Bft)
04.02.2006 16:00 -6,5 C 82 % 1022 hPa 0,0 l/m NO 13,2 km/h (3 Bft)
04.02.2006 17:00 -6,6 C 84 % 1022 hPa 0,0 l/m O 12,4 km/h (3 Bft)
04.02.2006 18:00 -6,5 C 84 % 1023 hPa 0,0 l/m NO 12,0 km/h (2 Bft)
04.02.2006 19:00 -6,4 C 85 % 1023 hPa 0,0 l/m NO 10,3 km/h (2 Bft)
04.02.2006 20:00 -6,3 C 85 % 1024 hPa 0,0 l/m O-NO 9,4 km/h (2 Bft)
04.02.2006 21:00 -6,1 C 85 % 1024 hPa 0,0 l/m O 1,3 km/h (1 Bft)
04.02.2006 22:00 -5,9 C 86 % 1024 hPa 0,0 l/m N 4,4 km/h (1 Bft)
04.02.2006 23:00 -5,6 C 88 % 1024 hPa 0,0 l/m N 6,2 km/h (2 Bft)
05.02.2006 00:00 -5,4 C 89 % 1024 hPa 0,0 l/m N 9,3 km/h (2 Bft)
05.02.2006 01:00 -5,3 C 88 % 1025 hPa 0,0 l/m N 9,6 km/h (2 Bft)
05.02.2006 02:00 -5,1 C 89 % 1025 hPa 0,0 l/m N-NO 9,0 km/h (2 Bft)
05.02.2006 03:00 -4,9 C 89 % 1025 hPa 0,0 l/m N 7,3 km/h (2 Bft)
05.02.2006 04:00 -4,7 C 88 % 1025 hPa 0,0 l/m N-NO 12,1 km/h (2 Bft)
05.02.2006 05:00 -4,6 C 84 % 1025 hPa 0,0 l/m NO 12,2 km/h (3 Bft)
05.02.2006 06:00 -4,6 C 83 % 1025 hPa 0,0 l/m N-NO 11,8 km/h (2 Bft)
05.02.2006 07:00 -4,8 C 82 % 1026 hPa 0,0 l/m N-NO 12,3 km/h (3 Bft)
05.02.2006 08:00 -5,0 C 82 % 1026 hPa 0,0 l/m N-NO 11,6 km/h (2 Bft)
05.02.2006 09:00 -4,8 C 79 % 1026 hPa 0,0 l/m NO 12,2 km/h (2 Bft)
05.02.2006 10:00 -4,4 C 76 % 1026 hPa 0,0 l/m O 16,1 km/h (3 Bft)
05.02.2006 11:00 -3,7 C 72 % 1026 hPa 0,0 l/m NO 13,2 km/h (3 Bft)
05.02.2006 12:00 -2,4 C 64 % 1026 hPa 0,0 l/m NO 13,9 km/h (3 Bft)
05.02.2006 13:00 -0,8 C 56 % 1026 hPa 0,0 l/m NO 12,9 km/h (3 Bft)
05.02.2006 14:00 0,1 C 52 % 1025 hPa 0,0 l/m NO 10,2 km/h (2 Bft)
05.02.2006 15:00 -0,5 C 53 % 1025 hPa 0,0 l/m NO 9,6 km/h (2 Bft)
05.02.2006 16:00 -1,6 C 57 % 1025 hPa 0,0 l/m N 8,4 km/h (2 Bft)
05.02.2006 17:00 -2,8 C 62 % 1025 hPa 0,0 l/m W-NW 2,6 km/h (1 Bft)
05.02.2006 18:00 -3,5 C 66 % 1025 hPa 0,0 l/m N 0,1 km/h (0 Bft)
05.02.2006 19:00 -3,5 C 68 % 1025 hPa 0,0 l/m N 0,0 km/h (0 Bft)
05.02.2006 20:00 -3,6 C 71 % 1025 hPa 0,0 l/m N 0,0 km/h (0 Bft)
05.02.2006 21:00 -3,6 C 73 % 1026 hPa 0,0 l/m S-SW 1,6 km/h (1 Bft)
05.02.2006 22:00 -3,5 C 75 % 1026 hPa 0,0 l/m S 3,8 km/h (1 Bft)
05.02.2006 23:00 -3,5 C 75 % 1025 hPa 0,0 l/m S 1,0 km/h (0 Bft)
Min-Datum _ 03.02.06 03.02.06 03.02.06 - - 30.01.06
_ Min-Zeit 08:28 15:19 15:32 - - 00:11
Minimum _ -11,0 C 42 % 1014 hPa - - 0,0 km/h (0 Bft)
Max-Datum _ 31.01.06 02.02.06 05.02.06 30.01.06 - 30.01.06
_ Max-Zeit 15:06 12:15 07:17 00:00 - 20:35
Maximum _ 5,4 C 100 % 1026 hPa 0,0 l/m - 24,7 km/h
N-NO (4 Bft)
Durchschnitt _ -4,4 C 76 % 1021 hPa #0,0 l/m N 6,1 km/h (2 Bft)

Durchschnitt Minimum Temp.-4,8 C
Durchschnitt Maximum Temp.-3,9 C